sensor_id;sensor_type;location;lat;lon;timestamp;P1;durP1;ratioP1;P2;durP2;ratioP2
57125;SDS011;43000;50.770;6.110;2022-07-25T00:01:22;6.80;;;5.32;;
57125;SDS011;43000;50.770;6.110;2022-07-25T00:03:49;7.78;;;5.72;;
57125;SDS011;43000;50.770;6.110;2022-07-25T00:06:16;5.80;;;5.20;;
57125;SDS011;43000;50.770;6.110;2022-07-25T00:08:42;8.27;;;6.22;;
57125;SDS011;43000;50.770;6.110;2022-07-25T00:11:09;6.88;;;5.40;;
57125;SDS011;43000;50.770;6.110;2022-07-25T00:13:35;7.80;;;5.07;;
57125;SDS011;43000;50.770;6.110;2022-07-25T00:16:03;6.07;;;4.82;;
57125;SDS011;43000;50.770;6.110;2022-07-25T00:18:31;6.05;;;4.97;;
57125;SDS011;43000;50.770;6.110;2022-07-25T00:20:57;7.25;;;5.97;;
57125;SDS011;43000;50.770;6.110;2022-07-25T00:23:24;8.27;;;4.78;;
57125;SDS011;43000;50.770;6.110;2022-07-25T00:25:50;9.48;;;6.05;;
57125;SDS011;43000;50.770;6.110;2022-07-25T00:28:17;7.38;;;5.95;;
57125;SDS011;43000;50.770;6.110;2022-07-25T00:30:44;9.77;;;5.80;;
57125;SDS011;43000;50.770;6.110;2022-07-25T00:33:12;7.22;;;5.30;;
57125;SDS011;43000;50.770;6.110;2022-07-25T00:35:39;8.25;;;5.80;;
57125;SDS011;43000;50.770;6.110;2022-07-25T00:38:05;6.97;;;5.60;;
57125;SDS011;43000;50.770;6.110;2022-07-25T00:40:32;8.00;;;5.72;;
57125;SDS011;43000;50.770;6.110;2022-07-25T00:42:58;6.97;;;5.55;;
57125;SDS011;43000;50.770;6.110;2022-07-25T00:45:25;8.73;;;6.55;;
57125;SDS011;43000;50.770;6.110;2022-07-25T00:47:52;6.95;;;6.22;;
57125;SDS011;43000;50.770;6.110;2022-07-25T00:50:20;6.47;;;5.75;;
57125;SDS011;43000;50.770;6.110;2022-07-25T00:52:47;7.07;;;6.22;;
57125;SDS011;43000;50.770;6.110;2022-07-25T00:55:13;5.47;;;4.88;;
57125;SDS011;43000;50.770;6.110;2022-07-25T00:57:40;7.22;;;5.25;;
57125;SDS011;43000;50.770;6.110;2022-07-25T01:00:08;6.90;;;6.00;;
57125;SDS011;43000;50.770;6.110;2022-07-25T01:02:37;6.55;;;5.28;;
57125;SDS011;43000;50.770;6.110;2022-07-25T01:05:04;6.88;;;5.68;;
57125;SDS011;43000;50.770;6.110;2022-07-25T01:07:33;5.97;;;5.05;;
57125;SDS011;43000;50.770;6.110;2022-07-25T01:10:00;7.13;;;5.75;;
57125;SDS011;43000;50.770;6.110;2022-07-25T01:12:27;6.90;;;5.65;;
57125;SDS011;43000;50.770;6.110;2022-07-25T01:14:54;8.20;;;5.60;;
57125;SDS011;43000;50.770;6.110;2022-07-25T01:17:21;5.90;;;5.15;;
57125;SDS011;43000;50.770;6.110;2022-07-25T01:19:48;5.90;;;5.30;;
57125;SDS011;43000;50.770;6.110;2022-07-25T01:22:16;7.55;;;5.53;;
57125;SDS011;43000;50.770;6.110;2022-07-25T01:24:43;8.18;;;5.30;;
57125;SDS011;43000;50.770;6.110;2022-07-25T01:27:09;6.75;;;5.53;;
57125;SDS011;43000;50.770;6.110;2022-07-25T01:29:36;7.15;;;5.90;;
57125;SDS011;43000;50.770;6.110;2022-07-25T01:32:03;9.85;;;6.55;;
57125;SDS011;43000;50.770;6.110;2022-07-25T01:34:30;8.20;;;6.25;;
57125;SDS011;43000;50.770;6.110;2022-07-25T01:36:56;5.63;;;4.65;;
57125;SDS011;43000;50.770;6.110;2022-07-25T01:39:24;9.15;;;5.65;;
57125;SDS011;43000;50.770;6.110;2022-07-25T01:41:51;6.05;;;5.45;;
57125;SDS011;43000;50.770;6.110;2022-07-25T01:44:18;6.88;;;5.05;;
57125;SDS011;43000;50.770;6.110;2022-07-25T01:46:44;7.18;;;6.10;;
57125;SDS011;43000;50.770;6.110;2022-07-25T01:49:11;6.90;;;5.50;;
57125;SDS011;43000;50.770;6.110;2022-07-25T01:51:38;7.88;;;6.25;;
57125;SDS011;43000;50.770;6.110;2022-07-25T01:54:04;7.18;;;5.53;;
57125;SDS011;43000;50.770;6.110;2022-07-25T01:56:32;8.68;;;5.22;;
57125;SDS011;43000;50.770;6.110;2022-07-25T01:58:59;7.05;;;6.00;;
57125;SDS011;43000;50.770;6.110;2022-07-25T02:01:25;6.57;;;5.15;;
57125;SDS011;43000;50.770;6.110;2022-07-25T02:03:52;8.50;;;5.75;;
57125;SDS011;43000;50.770;6.110;2022-07-25T02:06:18;6.55;;;5.50;;
57125;SDS011;43000;50.770;6.110;2022-07-25T02:08:45;6.00;;;5.38;;
57125;SDS011;43000;50.770;6.110;2022-07-25T02:11:12;7.63;;;6.47;;
57125;SDS011;43000;50.770;6.110;2022-07-25T02:13:40;8.80;;;6.22;;
57125;SDS011;43000;50.770;6.110;2022-07-25T02:16:07;12.13;;;6.40;;
57125;SDS011;43000;50.770;6.110;2022-07-25T02:18:33;8.23;;;5.75;;
57125;SDS011;43000;50.770;6.110;2022-07-25T02:21:00;6.85;;;5.82;;
57125;SDS011;43000;50.770;6.110;2022-07-25T02:23:27;7.85;;;6.78;;
57125;SDS011;43000;50.770;6.110;2022-07-25T02:25:53;13.55;;;5.93;;
57125;SDS011;43000;50.770;6.110;2022-07-25T02:28:20;7.25;;;5.43;;
57125;SDS011;43000;50.770;6.110;2022-07-25T02:30:48;9.70;;;5.75;;
57125;SDS011;43000;50.770;6.110;2022-07-25T02:33:14;6.80;;;5.35;;
57125;SDS011;43000;50.770;6.110;2022-07-25T02:35:41;7.68;;;5.22;;
57125;SDS011;43000;50.770;6.110;2022-07-25T02:38:07;7.32;;;5.50;;
57125;SDS011;43000;50.770;6.110;2022-07-25T02:40:34;7.65;;;6.13;;
57125;SDS011;43000;50.770;6.110;2022-07-25T02:43:01;7.10;;;5.65;;
57125;SDS011;43000;50.770;6.110;2022-07-25T02:45:27;9.05;;;5.80;;
57125;SDS011;43000;50.770;6.110;2022-07-25T02:47:55;6.88;;;5.20;;
57125;SDS011;43000;50.770;6.110;2022-07-25T02:50:22;8.93;;;6.60;;
57125;SDS011;43000;50.770;6.110;2022-07-25T02:52:48;9.02;;;6.07;;
57125;SDS011;43000;50.770;6.110;2022-07-25T02:55:15;7.90;;;5.85;;
57125;SDS011;43000;50.770;6.110;2022-07-25T02:57:41;9.63;;;6.40;;
57125;SDS011;43000;50.770;6.110;2022-07-25T03:00:08;7.65;;;6.20;;
57125;SDS011;43000;50.770;6.110;2022-07-25T03:02:36;8.98;;;5.43;;
57125;SDS011;43000;50.770;6.110;2022-07-25T03:05:06;10.18;;;5.85;;
57125;SDS011;43000;50.770;6.110;2022-07-25T03:07:34;9.85;;;5.45;;
57125;SDS011;43000;50.770;6.110;2022-07-25T03:10:00;11.10;;;6.70;;
57125;SDS011;43000;50.770;6.110;2022-07-25T03:12:27;13.50;;;6.65;;
57125;SDS011;43000;50.770;6.110;2022-07-25T03:14:54;10.10;;;7.30;;
57125;SDS011;43000;50.770;6.110;2022-07-25T03:17:20;8.00;;;6.03;;
57125;SDS011;43000;50.770;6.110;2022-07-25T03:19:47;9.07;;;6.20;;
57125;SDS011;43000;50.770;6.110;2022-07-25T03:22:15;7.43;;;6.45;;
57125;SDS011;43000;50.770;6.110;2022-07-25T03:24:42;9.13;;;6.82;;
57125;SDS011;43000;50.770;6.110;2022-07-25T03:27:08;11.98;;;6.85;;
57125;SDS011;43000;50.770;6.110;2022-07-25T03:29:35;10.68;;;5.95;;
57125;SDS011;43000;50.770;6.110;2022-07-25T03:32:01;11.18;;;6.18;;
57125;SDS011;43000;50.770;6.110;2022-07-25T03:34:28;10.35;;;5.50;;
57125;SDS011;43000;50.770;6.110;2022-07-25T03:36:55;8.68;;;6.57;;
57125;SDS011;43000;50.770;6.110;2022-07-25T03:39:23;9.35;;;5.63;;
57125;SDS011;43000;50.770;6.110;2022-07-25T03:41:50;7.63;;;5.80;;
57125;SDS011;43000;50.770;6.110;2022-07-25T03:44:17;8.45;;;5.15;;
57125;SDS011;43000;50.770;6.110;2022-07-25T03:46:44;6.80;;;5.22;;
57125;SDS011;43000;50.770;6.110;2022-07-25T03:49:11;5.75;;;4.78;;
57125;SDS011;43000;50.770;6.110;2022-07-25T03:51:37;9.88;;;7.03;;
57125;SDS011;43000;50.770;6.110;2022-07-25T03:54:04;12.68;;;6.88;;
57125;SDS011;43000;50.770;6.110;2022-07-25T03:56:37;12.85;;;6.82;;
57125;SDS011;43000;50.770;6.110;2022-07-25T03:59:04;8.38;;;6.15;;
57125;SDS011;43000;50.770;6.110;2022-07-25T04:01:31;9.00;;;5.97;;
57125;SDS011;43000;50.770;6.110;2022-07-25T04:03:59;7.70;;;6.53;;
57125;SDS011;43000;50.770;6.110;2022-07-25T04:06:26;6.80;;;5.57;;
57125;SDS011;43000;50.770;6.110;2022-07-25T04:08:53;8.88;;;6.38;;
57125;SDS011;43000;50.770;6.110;2022-07-25T04:11:20;8.73;;;6.97;;
57125;SDS011;43000;50.770;6.110;2022-07-25T04:13:49;8.88;;;6.45;;
57125;SDS011;43000;50.770;6.110;2022-07-25T04:16:16;12.80;;;5.93;;
57125;SDS011;43000;50.770;6.110;2022-07-25T04:18:43;7.57;;;6.53;;
57125;SDS011;43000;50.770;6.110;2022-07-25T04:21:09;12.02;;;7.00;;
57125;SDS011;43000;50.770;6.110;2022-07-25T04:23:36;8.85;;;5.97;;
57125;SDS011;43000;50.770;6.110;2022-07-25T04:26:03;6.75;;;6.05;;
57125;SDS011;43000;50.770;6.110;2022-07-25T04:28:29;12.15;;;6.45;;
57125;SDS011;43000;50.770;6.110;2022-07-25T04:30:58;7.55;;;5.82;;
57125;SDS011;43000;50.770;6.110;2022-07-25T04:33:25;7.97;;;6.25;;
57125;SDS011;43000;50.770;6.110;2022-07-25T04:35:52;10.93;;;6.13;;
57125;SDS011;43000;50.770;6.110;2022-07-25T04:38:18;7.38;;;5.18;;
57125;SDS011;43000;50.770;6.110;2022-07-25T04:40:45;7.15;;;5.93;;
57125;SDS011;43000;50.770;6.110;2022-07-25T04:43:12;7.35;;;5.30;;
57125;SDS011;43000;50.770;6.110;2022-07-25T04:45:39;8.70;;;5.95;;
57125;SDS011;43000;50.770;6.110;2022-07-25T04:48:07;7.07;;;6.13;;
57125;SDS011;43000;50.770;6.110;2022-07-25T04:50:34;9.00;;;6.43;;
57125;SDS011;43000;50.770;6.110;2022-07-25T04:53:00;8.25;;;5.65;;
57125;SDS011;43000;50.770;6.110;2022-07-25T04:55:27;7.75;;;5.63;;
57125;SDS011;43000;50.770;6.110;2022-07-25T04:57:53;8.10;;;5.35;;
57125;SDS011;43000;50.770;6.110;2022-07-25T05:00:20;9.20;;;5.47;;
57125;SDS011;43000;50.770;6.110;2022-07-25T05:02:47;6.15;;;4.65;;
57125;SDS011;43000;50.770;6.110;2022-07-25T05:05:16;5.97;;;5.20;;
57125;SDS011;43000;50.770;6.110;2022-07-25T05:07:43;6.05;;;5.18;;
57125;SDS011;43000;50.770;6.110;2022-07-25T05:10:09;6.18;;;5.45;;
57125;SDS011;43000;50.770;6.110;2022-07-25T05:12:36;7.88;;;5.15;;
57125;SDS011;43000;50.770;6.110;2022-07-25T05:15:03;7.40;;;6.50;;
57125;SDS011;43000;50.770;6.110;2022-07-25T05:17:31;7.80;;;6.15;;
57125;SDS011;43000;50.770;6.110;2022-07-25T05:19:57;9.27;;;5.57;;
57125;SDS011;43000;50.770;6.110;2022-07-25T05:22:25;6.80;;;5.43;;
57125;SDS011;43000;50.770;6.110;2022-07-25T05:24:52;8.10;;;6.70;;
57125;SDS011;43000;50.770;6.110;2022-07-25T05:27:18;6.53;;;5.55;;
57125;SDS011;43000;50.770;6.110;2022-07-25T05:29:45;8.60;;;5.60;;
57125;SDS011;43000;50.770;6.110;2022-07-25T05:32:12;5.35;;;4.82;;
57125;SDS011;43000;50.770;6.110;2022-07-25T05:34:38;8.93;;;5.22;;
57125;SDS011;43000;50.770;6.110;2022-07-25T05:37:05;7.70;;;5.53;;
57125;SDS011;43000;50.770;6.110;2022-07-25T05:39:33;6.97;;;5.38;;
57125;SDS011;43000;50.770;6.110;2022-07-25T05:42:01;5.97;;;5.13;;
57125;SDS011;43000;50.770;6.110;2022-07-25T05:44:28;5.72;;;4.85;;
57125;SDS011;43000;50.770;6.110;2022-07-25T05:46:54;5.75;;;4.97;;
57125;SDS011;43000;50.770;6.110;2022-07-25T05:49:21;6.50;;;5.07;;
57125;SDS011;43000;50.770;6.110;2022-07-25T05:51:48;8.07;;;5.90;;
57125;SDS011;43000;50.770;6.110;2022-07-25T05:54:14;7.72;;;5.75;;
57125;SDS011;43000;50.770;6.110;2022-07-25T05:56:42;8.15;;;6.70;;
57125;SDS011;43000;50.770;6.110;2022-07-25T05:59:09;10.35;;;6.75;;
57125;SDS011;43000;50.770;6.110;2022-07-25T06:01:35;10.38;;;5.28;;
57125;SDS011;43000;50.770;6.110;2022-07-25T06:04:02;7.65;;;6.20;;
57125;SDS011;43000;50.770;6.110;2022-07-25T06:06:29;8.20;;;5.68;;
57125;SDS011;43000;50.770;6.110;2022-07-25T06:08:56;7.78;;;5.40;;
57125;SDS011;43000;50.770;6.110;2022-07-25T06:11:23;13.57;;;6.30;;
57125;SDS011;43000;50.770;6.110;2022-07-25T06:13:53;8.27;;;5.90;;
57125;SDS011;43000;50.770;6.110;2022-07-25T06:16:19;5.53;;;4.75;;
57125;SDS011;43000;50.770;6.110;2022-07-25T06:18:46;9.63;;;5.88;;
57125;SDS011;43000;50.770;6.110;2022-07-25T06:21:14;5.60;;;5.03;;
57125;SDS011;43000;50.770;6.110;2022-07-25T06:23:40;11.43;;;5.90;;
57125;SDS011;43000;50.770;6.110;2022-07-25T06:26:07;10.23;;;6.32;;
57125;SDS011;43000;50.770;6.110;2022-07-25T06:28:34;6.97;;;5.88;;
57125;SDS011;43000;50.770;6.110;2022-07-25T06:31:03;9.25;;;6.72;;
57125;SDS011;43000;50.770;6.110;2022-07-25T06:33:29;8.85;;;5.80;;
57125;SDS011;43000;50.770;6.110;2022-07-25T06:35:56;6.90;;;6.20;;
57125;SDS011;43000;50.770;6.110;2022-07-25T06:38:22;7.72;;;6.03;;
57125;SDS011;43000;50.770;6.110;2022-07-25T06:40:49;9.27;;;6.45;;
57125;SDS011;43000;50.770;6.110;2022-07-25T06:43:16;6.18;;;5.30;;
57125;SDS011;43000;50.770;6.110;2022-07-25T06:45:42;7.53;;;5.85;;
57125;SDS011;43000;50.770;6.110;2022-07-25T06:48:12;6.47;;;5.35;;
57125;SDS011;43000;50.770;6.110;2022-07-25T06:50:39;9.15;;;6.03;;
57125;SDS011;43000;50.770;6.110;2022-07-25T06:53:06;10.57;;;5.43;;
57125;SDS011;43000;50.770;6.110;2022-07-25T06:55:33;6.72;;;5.28;;
57125;SDS011;43000;50.770;6.110;2022-07-25T06:57:59;7.93;;;5.68;;
57125;SDS011;43000;50.770;6.110;2022-07-25T07:00:26;8.02;;;6.30;;
57125;SDS011;43000;50.770;6.110;2022-07-25T07:02:53;7.70;;;5.63;;
57125;SDS011;43000;50.770;6.110;2022-07-25T07:05:22;6.43;;;5.70;;
57125;SDS011;43000;50.770;6.110;2022-07-25T07:07:50;7.78;;;6.30;;
57125;SDS011;43000;50.770;6.110;2022-07-25T07:10:17;6.40;;;5.07;;
57125;SDS011;43000;50.770;6.110;2022-07-25T07:12:44;6.15;;;5.38;;
57125;SDS011;43000;50.770;6.110;2022-07-25T07:15:11;9.40;;;6.10;;
57125;SDS011;43000;50.770;6.110;2022-07-25T07:17:38;7.90;;;5.55;;
57125;SDS011;43000;50.770;6.110;2022-07-25T07:20:05;11.23;;;5.90;;
57125;SDS011;43000;50.770;6.110;2022-07-25T07:22:43;6.60;;;5.80;;
57125;SDS011;43000;50.770;6.110;2022-07-25T07:25:11;9.05;;;6.60;;
57125;SDS011;43000;50.770;6.110;2022-07-25T07:27:38;7.47;;;6.38;;
57125;SDS011;43000;50.770;6.110;2022-07-25T07:30:05;10.80;;;5.82;;
57125;SDS011;43000;50.770;6.110;2022-07-25T07:32:32;7.18;;;6.05;;
57125;SDS011;43000;50.770;6.110;2022-07-25T07:34:59;7.53;;;6.22;;
57125;SDS011;43000;50.770;6.110;2022-07-25T07:37:26;13.95;;;6.60;;
57125;SDS011;43000;50.770;6.110;2022-07-25T07:39:53;12.05;;;7.65;;
57125;SDS011;43000;50.770;6.110;2022-07-25T07:42:20;13.77;;;6.70;;
57125;SDS011;43000;50.770;6.110;2022-07-25T07:44:47;8.15;;;5.78;;
57125;SDS011;43000;50.770;6.110;2022-07-25T07:47:13;8.98;;;6.25;;
57125;SDS011;43000;50.770;6.110;2022-07-25T07:49:40;7.28;;;5.55;;
57125;SDS011;43000;50.770;6.110;2022-07-25T07:52:06;17.00;;;7.15;;
57125;SDS011;43000;50.770;6.110;2022-07-25T07:54:33;9.38;;;5.75;;
57125;SDS011;43000;50.770;6.110;2022-07-25T07:57:18;10.45;;;6.25;;
57125;SDS011;43000;50.770;6.110;2022-07-25T07:59:45;12.05;;;8.68;;
57125;SDS011;43000;50.770;6.110;2022-07-25T08:02:12;7.43;;;6.70;;
57125;SDS011;43000;50.770;6.110;2022-07-25T08:04:38;9.25;;;6.30;;
57125;SDS011;43000;50.770;6.110;2022-07-25T08:07:05;7.32;;;5.55;;
57125;SDS011;43000;50.770;6.110;2022-07-25T08:09:31;7.25;;;6.03;;
57125;SDS011;43000;50.770;6.110;2022-07-25T08:11:58;6.88;;;6.07;;
57125;SDS011;43000;50.770;6.110;2022-07-25T08:14:26;9.60;;;6.38;;
57125;SDS011;43000;50.770;6.110;2022-07-25T08:16:54;10.73;;;6.03;;
57125;SDS011;43000;50.770;6.110;2022-07-25T08:19:22;18.48;;;6.82;;
57125;SDS011;43000;50.770;6.110;2022-07-25T08:21:49;17.15;;;7.03;;
57125;SDS011;43000;50.770;6.110;2022-07-25T08:24:15;20.58;;;8.30;;
57125;SDS011;43000;50.770;6.110;2022-07-25T08:26:42;29.30;;;10.68;;
57125;SDS011;43000;50.770;6.110;2022-07-25T08:29:08;8.00;;;6.50;;
57125;SDS011;43000;50.770;6.110;2022-07-25T08:31:36;21.13;;;8.65;;
57125;SDS011;43000;50.770;6.110;2022-07-25T08:34:03;20.38;;;8.10;;
57125;SDS011;43000;50.770;6.110;2022-07-25T08:36:30;8.30;;;5.72;;
57125;SDS011;43000;50.770;6.110;2022-07-25T08:38:56;8.70;;;6.57;;
57125;SDS011;43000;50.770;6.110;2022-07-25T08:41:23;12.48;;;5.90;;
57125;SDS011;43000;50.770;6.110;2022-07-25T08:43:50;10.70;;;6.57;;
57125;SDS011;43000;50.770;6.110;2022-07-25T08:46:17;10.95;;;5.57;;
57125;SDS011;43000;50.770;6.110;2022-07-25T08:48:45;8.23;;;6.40;;
57125;SDS011;43000;50.770;6.110;2022-07-25T08:51:12;10.82;;;6.35;;
57125;SDS011;43000;50.770;6.110;2022-07-25T08:53:40;9.88;;;5.88;;
57125;SDS011;43000;50.770;6.110;2022-07-25T08:56:07;17.15;;;7.45;;
57125;SDS011;43000;50.770;6.110;2022-07-25T08:58:34;11.45;;;6.40;;
57125;SDS011;43000;50.770;6.110;2022-07-25T09:01:00;6.75;;;6.00;;
57125;SDS011;43000;50.770;6.110;2022-07-25T09:03:27;10.00;;;5.95;;
57125;SDS011;43000;50.770;6.110;2022-07-25T09:05:55;7.00;;;6.20;;
57125;SDS011;43000;50.770;6.110;2022-07-25T09:08:22;10.70;;;6.90;;
57125;SDS011;43000;50.770;6.110;2022-07-25T09:10:49;8.77;;;6.28;;
57125;SDS011;43000;50.770;6.110;2022-07-25T09:13:18;7.55;;;6.30;;
57125;SDS011;43000;50.770;6.110;2022-07-25T09:15:48;12.48;;;8.40;;
57125;SDS011;43000;50.770;6.110;2022-07-25T09:18:21;9.77;;;6.55;;
57125;SDS011;43000;50.770;6.110;2022-07-25T09:20:50;13.45;;;6.85;;
57125;SDS011;43000;50.770;6.110;2022-07-25T09:23:28;8.50;;;6.38;;
57125;SDS011;43000;50.770;6.110;2022-07-25T09:26:02;7.38;;;5.63;;
57125;SDS011;43000;50.770;6.110;2022-07-25T09:28:30;6.90;;;4.85;;
57125;SDS011;43000;50.770;6.110;2022-07-25T09:30:58;5.90;;;5.28;;
57125;SDS011;43000;50.770;6.110;2022-07-25T09:33:27;8.80;;;5.40;;
57125;SDS011;43000;50.770;6.110;2022-07-25T09:35:54;6.53;;;4.75;;
57125;SDS011;43000;50.770;6.110;2022-07-25T09:38:21;4.90;;;3.72;;
57125;SDS011;43000;50.770;6.110;2022-07-25T09:40:54;9.32;;;4.82;;
57125;SDS011;43000;50.770;6.110;2022-07-25T09:43:22;6.78;;;4.22;;
57125;SDS011;43000;50.770;6.110;2022-07-25T09:45:49;10.00;;;3.92;;
57125;SDS011;43000;50.770;6.110;2022-07-25T09:48:17;8.63;;;3.35;;
57125;SDS011;43000;50.770;6.110;2022-07-25T09:50:44;5.32;;;4.47;;
57125;SDS011;43000;50.770;6.110;2022-07-25T09:53:11;8.10;;;3.83;;
57125;SDS011;43000;50.770;6.110;2022-07-25T09:55:37;6.75;;;3.58;;
57125;SDS011;43000;50.770;6.110;2022-07-25T09:58:07;5.35;;;3.03;;
57125;SDS011;43000;50.770;6.110;2022-07-25T10:00:33;7.55;;;3.47;;
57125;SDS011;43000;50.770;6.110;2022-07-25T10:03:04;4.53;;;3.15;;
57125;SDS011;43000;50.770;6.110;2022-07-25T10:05:45;7.55;;;3.72;;
57125;SDS011;43000;50.770;6.110;2022-07-25T10:08:20;8.32;;;3.60;;
57125;SDS011;43000;50.770;6.110;2022-07-25T10:10:48;5.97;;;2.97;;
57125;SDS011;43000;50.770;6.110;2022-07-25T10:13:26;7.88;;;3.95;;
57125;SDS011;43000;50.770;6.110;2022-07-25T10:15:55;4.78;;;2.90;;
57125;SDS011;43000;50.770;6.110;2022-07-25T10:18:22;7.53;;;3.40;;
57125;SDS011;43000;50.770;6.110;2022-07-25T10:20:50;5.63;;;3.45;;
57125;SDS011;43000;50.770;6.110;2022-07-25T10:23:19;5.40;;;2.97;;
57125;SDS011;43000;50.770;6.110;2022-07-25T10:25:58;5.35;;;3.60;;
57125;SDS011;43000;50.770;6.110;2022-07-25T10:28:35;7.50;;;3.63;;
57125;SDS011;43000;50.770;6.110;2022-07-25T10:31:13;6.35;;;4.40;;
57125;SDS011;43000;50.770;6.110;2022-07-25T10:33:46;6.90;;;4.32;;
57125;SDS011;43000;50.770;6.110;2022-07-25T10:36:14;7.38;;;3.80;;
57125;SDS011;43000;50.770;6.110;2022-07-25T10:38:42;9.60;;;4.32;;
57125;SDS011;43000;50.770;6.110;2022-07-25T10:41:10;5.10;;;3.80;;
57125;SDS011;43000;50.770;6.110;2022-07-25T10:43:39;6.25;;;3.72;;
57125;SDS011;43000;50.770;6.110;2022-07-25T10:46:12;4.82;;;3.58;;
57125;SDS011;43000;50.770;6.110;2022-07-25T10:51:07;9.77;;;3.47;;
57125;SDS011;43000;50.770;6.110;2022-07-25T10:53:35;7.00;;;3.90;;
57125;SDS011;43000;50.770;6.110;2022-07-25T10:56:07;13.18;;;4.45;;
57125;SDS011;43000;50.770;6.110;2022-07-25T10:58:43;6.53;;;4.35;;
57125;SDS011;43000;50.770;6.110;2022-07-25T11:01:18;7.57;;;3.63;;
57125;SDS011;43000;50.770;6.110;2022-07-25T11:03:46;9.15;;;4.55;;
57125;SDS011;43000;50.770;6.110;2022-07-25T11:06:13;9.02;;;4.32;;
57125;SDS011;43000;50.770;6.110;2022-07-25T11:08:41;7.85;;;4.03;;
57125;SDS011;43000;50.770;6.110;2022-07-25T11:11:09;7.03;;;3.70;;
57125;SDS011;43000;50.770;6.110;2022-07-25T11:13:37;6.95;;;3.92;;
57125;SDS011;43000;50.770;6.110;2022-07-25T11:16:06;8.18;;;3.42;;
57125;SDS011;43000;50.770;6.110;2022-07-25T11:18:35;5.43;;;3.85;;
57125;SDS011;43000;50.770;6.110;2022-07-25T11:21:03;6.82;;;4.00;;
57125;SDS011;43000;50.770;6.110;2022-07-25T11:23:31;7.43;;;3.53;;
57125;SDS011;43000;50.770;6.110;2022-07-25T11:26:05;6.25;;;2.90;;
57125;SDS011;43000;50.770;6.110;2022-07-25T11:31:07;6.00;;;3.30;;
57125;SDS011;43000;50.770;6.110;2022-07-25T11:33:35;10.00;;;3.58;;
57125;SDS011;43000;50.770;6.110;2022-07-25T11:36:02;7.47;;;3.40;;
57125;SDS011;43000;50.770;6.110;2022-07-25T11:38:30;8.52;;;3.95;;
57125;SDS011;43000;50.770;6.110;2022-07-25T11:40:57;12.68;;;3.28;;
57125;SDS011;43000;50.770;6.110;2022-07-25T11:43:24;7.80;;;4.00;;
57125;SDS011;43000;50.770;6.110;2022-07-25T11:45:54;10.93;;;3.10;;
57125;SDS011;43000;50.770;6.110;2022-07-25T11:48:29;9.55;;;4.32;;
57125;SDS011;43000;50.770;6.110;2022-07-25T11:51:06;6.13;;;2.92;;
57125;SDS011;43000;50.770;6.110;2022-07-25T11:53:38;6.13;;;3.13;;
57125;SDS011;43000;50.770;6.110;2022-07-25T11:56:10;8.05;;;3.65;;
57125;SDS011;43000;50.770;6.110;2022-07-25T12:01:11;11.50;;;3.53;;
57125;SDS011;43000;50.770;6.110;2022-07-25T12:03:40;10.43;;;3.65;;
57125;SDS011;43000;50.770;6.110;2022-07-25T12:06:08;8.40;;;3.30;;
57125;SDS011;43000;50.770;6.110;2022-07-25T12:08:36;7.05;;;3.47;;
57125;SDS011;43000;50.770;6.110;2022-07-25T12:11:14;9.45;;;3.90;;
57125;SDS011;43000;50.770;6.110;2022-07-25T12:13:42;8.93;;;3.30;;
57125;SDS011;43000;50.770;6.110;2022-07-25T12:16:09;4.32;;;2.15;;
57125;SDS011;43000;50.770;6.110;2022-07-25T12:18:36;5.68;;;2.90;;
57125;SDS011;43000;50.770;6.110;2022-07-25T12:21:05;6.85;;;3.05;;
57125;SDS011;43000;50.770;6.110;2022-07-25T12:23:31;7.75;;;3.13;;
57125;SDS011;43000;50.770;6.110;2022-07-25T12:25:58;12.18;;;3.20;;
57125;SDS011;43000;50.770;6.110;2022-07-25T12:28:25;6.07;;;3.20;;
57125;SDS011;43000;50.770;6.110;2022-07-25T12:30:52;6.82;;;2.80;;
57125;SDS011;43000;50.770;6.110;2022-07-25T12:33:19;5.80;;;2.80;;
57125;SDS011;43000;50.770;6.110;2022-07-25T12:35:45;7.95;;;2.63;;
57125;SDS011;43000;50.770;6.110;2022-07-25T12:38:13;4.38;;;2.67;;
57125;SDS011;43000;50.770;6.110;2022-07-25T12:40:40;7.28;;;2.53;;
57125;SDS011;43000;50.770;6.110;2022-07-25T12:43:07;8.40;;;3.33;;
57125;SDS011;43000;50.770;6.110;2022-07-25T12:45:34;10.23;;;2.72;;
57125;SDS011;43000;50.770;6.110;2022-07-25T12:48:00;5.80;;;2.67;;
57125;SDS011;43000;50.770;6.110;2022-07-25T12:50:27;5.45;;;2.70;;
57125;SDS011;43000;50.770;6.110;2022-07-25T12:52:54;17.02;;;8.13;;
57125;SDS011;43000;50.770;6.110;2022-07-25T12:55:22;8.38;;;4.45;;
57125;SDS011;43000;50.770;6.110;2022-07-25T12:57:48;15.18;;;7.05;;
57125;SDS011;43000;50.770;6.110;2022-07-25T13:00:16;15.15;;;5.68;;
57125;SDS011;43000;50.770;6.110;2022-07-25T13:02:44;9.88;;;5.15;;
57125;SDS011;43000;50.770;6.110;2022-07-25T13:05:11;8.85;;;4.80;;
57125;SDS011;43000;50.770;6.110;2022-07-25T13:07:37;11.20;;;6.28;;
57125;SDS011;43000;50.770;6.110;2022-07-25T13:10:04;13.27;;;5.93;;
57125;SDS011;43000;50.770;6.110;2022-07-25T13:12:33;6.78;;;3.55;;
57125;SDS011;43000;50.770;6.110;2022-07-25T13:15:00;7.55;;;3.60;;
57125;SDS011;43000;50.770;6.110;2022-07-25T13:17:26;9.90;;;4.80;;
57125;SDS011;43000;50.770;6.110;2022-07-25T13:19:53;7.55;;;3.30;;
57125;SDS011;43000;50.770;6.110;2022-07-25T13:22:20;6.50;;;3.55;;
57125;SDS011;43000;50.770;6.110;2022-07-25T13:24:47;6.68;;;2.67;;
57125;SDS011;43000;50.770;6.110;2022-07-25T13:27:14;8.43;;;3.05;;
57125;SDS011;43000;50.770;6.110;2022-07-25T13:29:44;6.68;;;2.47;;
57125;SDS011;43000;50.770;6.110;2022-07-25T13:32:11;11.73;;;3.60;;
57125;SDS011;43000;50.770;6.110;2022-07-25T13:34:38;6.28;;;3.22;;
57125;SDS011;43000;50.770;6.110;2022-07-25T13:37:04;5.63;;;2.95;;
57125;SDS011;43000;50.770;6.110;2022-07-25T13:39:31;4.57;;;2.88;;
57125;SDS011;43000;50.770;6.110;2022-07-25T13:41:59;5.85;;;3.25;;
57125;SDS011;43000;50.770;6.110;2022-07-25T13:44:26;10.25;;;3.90;;
57125;SDS011;43000;50.770;6.110;2022-07-25T13:46:54;8.35;;;3.70;;
57125;SDS011;43000;50.770;6.110;2022-07-25T13:49:22;3.80;;;2.47;;
57125;SDS011;43000;50.770;6.110;2022-07-25T13:51:49;8.48;;;3.17;;
57125;SDS011;43000;50.770;6.110;2022-07-25T13:54:16;8.43;;;2.58;;
57125;SDS011;43000;50.770;6.110;2022-07-25T13:56:42;6.07;;;2.83;;
57125;SDS011;43000;50.770;6.110;2022-07-25T13:59:09;14.98;;;4.00;;
57125;SDS011;43000;50.770;6.110;2022-07-25T14:01:35;10.27;;;3.22;;
57125;SDS011;43000;50.770;6.110;2022-07-25T14:04:03;9.25;;;3.60;;
57125;SDS011;43000;50.770;6.110;2022-07-25T14:06:30;5.88;;;2.72;;
57125;SDS011;43000;50.770;6.110;2022-07-25T14:08:57;10.77;;;3.28;;
57125;SDS011;43000;50.770;6.110;2022-07-25T14:11:24;8.13;;;3.05;;
57125;SDS011;43000;50.770;6.110;2022-07-25T14:13:50;5.47;;;2.72;;
57125;SDS011;43000;50.770;6.110;2022-07-25T14:16:17;8.77;;;3.40;;
57125;SDS011;43000;50.770;6.110;2022-07-25T14:18:44;10.32;;;3.55;;
57125;SDS011;43000;50.770;6.110;2022-07-25T14:21:12;6.78;;;3.55;;
57125;SDS011;43000;50.770;6.110;2022-07-25T14:23:38;5.97;;;3.17;;
57125;SDS011;43000;50.770;6.110;2022-07-25T14:26:05;11.60;;;3.03;;
57125;SDS011;43000;50.770;6.110;2022-07-25T14:28:32;17.83;;;3.85;;
57125;SDS011;43000;50.770;6.110;2022-07-25T14:30:58;10.40;;;3.53;;
57125;SDS011;43000;50.770;6.110;2022-07-25T14:33:25;7.50;;;2.95;;
57125;SDS011;43000;50.770;6.110;2022-07-25T14:35:52;8.07;;;3.70;;
57125;SDS011;43000;50.770;6.110;2022-07-25T14:38:20;9.38;;;3.13;;
57125;SDS011;43000;50.770;6.110;2022-07-25T14:40:46;10.40;;;3.33;;
57125;SDS011;43000;50.770;6.110;2022-07-25T14:43:13;4.80;;;2.75;;
57125;SDS011;43000;50.770;6.110;2022-07-25T14:45:39;7.95;;;3.22;;
57125;SDS011;43000;50.770;6.110;2022-07-25T14:48:06;7.22;;;3.13;;
57125;SDS011;43000;50.770;6.110;2022-07-25T14:50:33;6.57;;;2.75;;
57125;SDS011;43000;50.770;6.110;2022-07-25T14:52:59;15.10;;;3.70;;
57125;SDS011;43000;50.770;6.110;2022-07-25T14:55:27;10.73;;;3.10;;